Time;durP1;ratioP1;P1;durP2;ratioP2;P2;SDS_P1;SDS_P2;PMS_P1;PMS_P2;Temp;Humidity;BMP_temperature;BMP_pressure;BME280_temperature;BME280_humidity;BME280_pressure;Samples;Min_cycle;Max_cycle;Signal;HPM_P1;HPM_P2
2022/08/16 00:00:22;;;;;;;17.02;13.63;;;;;;;23.51;83.14;99183.25;5132852;27;20039;-69
2022/08/16 00:02:48;;;;;;;22.02;13.77;;;;;;;23.44;83.18;99174.53;5135332;27;20094;-69
2022/08/16 00:05:15;;;;;;;18.17;13.30;;;;;;;23.52;82.06;99179.47;5133038;27;20061;-68
2022/08/16 00:07:41;;;;;;;18.23;13.52;;;;;;;23.54;80.97;99185.44;5136179;27;20213;-69
2022/08/16 00:10:09;;;;;;;21.15;12.90;;;;;;;23.59;80.75;99184.66;5133350;27;20035;-72
2022/08/16 00:12:35;;;;;;;17.52;13.30;;;;;;;23.58;80.26;99179.53;5136473;27;20023;-68
2022/08/16 00:15:07;;;;;;;17.48;13.95;;;;;;;23.50;80.20;99184.31;5136776;27;20298;-69
2022/08/16 00:17:32;;;;;;;23.77;13.70;;;;;;;23.34;80.90;99187.97;5140761;27;20032;-72
2022/08/16 00:19:58;;;;;;;22.48;13.48;;;;;;;23.28;80.68;99180.09;5136074;27;20042;-72
2022/08/16 00:22:24;;;;;;;23.38;14.13;;;;;;;23.19;80.80;99177.88;5134488;27;20030;-69
2022/08/16 00:24:49;;;;;;;20.10;13.70;;;;;;;23.02;81.90;99176.38;5136880;27;20031;-69
2022/08/16 00:27:15;;;;;;;21.95;14.57;;;;;;;23.03;82.23;99175.31;5137825;27;20034;-68
2022/08/16 00:29:41;;;;;;;22.25;14.48;;;;;;;23.17;82.75;99184.59;5135329;27;20039;-72
2022/08/16 00:32:08;;;;;;;19.95;14.68;;;;;;;23.15;83.07;99187.56;5135536;27;20035;-69
2022/08/16 00:34:35;;;;;;;20.02;14.65;;;;;;;23.22;82.53;99184.66;5138271;27;20035;-69
2022/08/16 00:37:01;;;;;;;21.63;14.43;;;;;;;23.31;82.16;99195.78;5134803;27;20023;-69
2022/08/16 00:39:26;;;;;;;19.85;14.18;;;;;;;23.35;81.76;99200.41;5135369;27;20042;-69
2022/08/16 00:41:52;;;;;;;23.65;14.30;;;;;;;23.37;81.61;99211.78;5136088;27;20033;-68
2022/08/16 00:44:20;;;;;;;25.50;15.77;;;;;;;23.25;81.90;99208.44;5116099;27;20025;-69
2022/08/16 00:46:56;;;;;;;22.50;16.13;;;;;;;23.38;81.47;99212.59;5135574;27;20035;-72
2022/08/16 00:49:23;;;;;;;26.65;15.43;;;;;;;23.24;81.46;99221.13;5115514;27;20039;-72
2022/08/16 00:51:51;;;;;;;24.23;15.73;;;;;;;23.21;81.43;99216.25;5135413;27;20213;-69
2022/08/16 00:54:16;;;;;;;23.98;15.50;;;;;;;23.28;80.92;99223.31;5136115;27;20036;-69
2022/08/16 00:56:46;;;;;;;23.02;14.45;;;;;;;23.17;80.74;99220.53;5135909;27;20317;-68
2022/08/16 00:59:13;;;;;;;21.52;14.32;;;;;;;23.08;80.69;99223.94;5133958;27;20331;-68
2022/08/16 01:01:41;;;;;;;21.85;14.20;;;;;;;23.01;80.80;99223.34;5134618;27;20026;-68
2022/08/16 01:04:08;;;;;;;23.27;14.10;;;;;;;22.88;81.71;99221.84;5137127;27;20324;-69
2022/08/16 01:06:35;;;;;;;22.33;14.57;;;;;;;22.69;81.91;99217.84;5134287;27;20320;-72
2022/08/16 01:09:05;;;;;;;20.35;14.85;;;;;;;22.45;83.17;99214.59;5135459;27;20056;-68
2022/08/16 01:11:32;;;;;;;18.73;14.02;;;;;;;22.43;83.89;99224.81;5135360;27;20080;-68
2022/08/16 01:14:12;;;;;;;19.63;14.38;;;;;;;22.45;84.00;99233.47;5134319;27;20051;-69
2022/08/16 01:16:41;;;;;;;18.20;13.55;;;;;;;22.48;84.27;99225.69;5135575;27;20035;-69
2022/08/16 01:19:28;;;;;;;23.45;14.77;;;;;;;22.55;83.54;99226.31;5134186;27;20068;-72
2022/08/16 01:22:40;;;;;;;19.75;13.85;;;;;;;22.60;83.18;99215.59;5133311;27;20239;-69
2022/08/16 01:25:14;;;;;;;19.58;13.70;;;;;;;22.46;82.94;99219.75;5133812;27;20158;-69
2022/08/16 01:27:45;;;;;;;23.85;15.85;;;;;;;22.57;82.13;99218.78;5134127;27;20027;-69
2022/08/16 01:30:22;;;;;;;20.52;13.80;;;;;;;22.61;81.61;99219.09;5134480;27;20332;-72
2022/08/16 01:32:50;;;;;;;22.02;14.65;;;;;;;22.52;81.47;99212.53;5135259;27;20229;-69
2022/08/16 01:35:24;;;;;;;19.60;14.20;;;;;;;22.37;81.79;99223.13;5134166;27;20031;-69
2022/08/16 01:37:54;;;;;;;20.25;14.02;;;;;;;22.24;81.09;99200.88;5134995;27;20039;-68
2022/08/16 01:40:25;;;;;;;21.05;13.95;;;;;;;22.48;80.90;99223.00;5134452;27;20232;-68
2022/08/16 01:42:53;;;;;;;23.13;14.40;;;;;;;22.26;81.36;99216.81;5133395;27;20031;-68
2022/08/16 01:45:19;;;;;;;17.80;12.52;;;;;;;22.33;81.47;99220.13;5133271;27;20220;-72
2022/08/16 01:47:47;;;;;;;21.15;13.90;;;;;;;22.23;81.93;99215.41;5134895;27;20023;-68
2022/08/16 01:50:13;;;;;;;19.50;13.68;;;;;;;22.38;81.31;99209.41;5134692;27;20043;-72
2022/08/16 01:52:40;;;;;;;19.83;14.32;;;;;;;22.65;79.84;99225.63;5134899;27;20440;-69
2022/08/16 01:55:06;;;;;;;24.20;14.05;;;;;;;22.70;79.88;99225.66;5130950;27;20328;-69
2022/08/16 01:57:32;;;;;;;21.48;14.88;;;;;;;22.71;79.92;99226.50;5135419;27;20027;-73
2022/08/16 01:59:58;;;;;;;20.10;14.27;;;;;;;22.66;80.38;99229.94;5134052;27;20392;-72
2022/08/16 02:02:23;;;;;;;26.20;16.08;;;;;;;22.66;80.06;99212.94;5132749;27;20073;-72
2022/08/16 02:04:50;;;;;;;20.45;14.93;;;;;;;22.65;80.29;99220.22;5133704;27;20043;-73
2022/08/16 02:07:17;;;;;;;21.35;15.57;;;;;;;22.65;80.60;99211.31;5134375;27;20024;-69
2022/08/16 02:09:43;;;;;;;22.65;14.88;;;;;;;22.60;80.81;99220.97;5134200;27;20135;-72
2022/08/16 02:12:10;;;;;;;23.35;15.00;;;;;;;22.64;80.74;99215.88;5135321;27;20153;-68
2022/08/16 02:14:37;;;;;;;21.60;14.77;;;;;;;22.61;80.84;99216.41;5134152;27;20051;-72
2022/08/16 02:17:05;;;;;;;22.48;15.15;;;;;;;22.34;81.90;99216.34;5130627;27;20332;-69
2022/08/16 02:19:32;;;;;;;24.67;16.25;;;;;;;22.57;81.22;99220.66;5131957;27;20080;-69
2022/08/16 02:21:59;;;;;;;19.33;15.00;;;;;;;22.60;80.59;99222.88;5135924;27;20035;-72
2022/08/16 02:24:25;;;;;;;20.70;16.20;;;;;;;22.51;81.20;99235.97;5133624;27;20030;-69
2022/08/16 02:26:51;;;;;;;23.88;16.38;;;;;;;22.54;80.57;99234.66;5131372;27;20723;-72
2022/08/16 02:29:18;;;;;;;19.98;15.88;;;;;;;22.48;80.88;99239.19;5133175;27;20023;-69
2022/08/16 02:31:45;;;;;;;20.98;15.98;;;;;;;22.60;79.95;99241.75;5133220;27;20103;-68
2022/08/16 02:34:11;;;;;;;22.17;15.60;;;;;;;22.63;79.61;99244.75;5133124;27;20374;-69
2022/08/16 02:36:37;;;;;;;25.35;16.75;;;;;;;22.75;78.53;99235.72;5114568;27;20032;-69
2022/08/16 02:39:05;;;;;;;22.42;16.35;;;;;;;22.59;79.18;99245.53;5133865;27;20038;-73
2022/08/16 02:41:30;;;;;;;21.75;16.13;;;;;;;22.76;78.14;99243.56;5132353;27;20296;-73
2022/08/16 02:43:56;;;;;;;23.15;16.20;;;;;;;;;;5135294;27;20054;-69
2022/08/16 02:46:21;;;;;;;21.63;16.95;;;;;;;22.58;78.43;99247.41;5130070;27;20058;-68
2022/08/16 02:48:47;;;;;;;22.92;16.35;;;;;;;22.58;78.66;99251.97;5116004;27;20011;-68
2022/08/16 02:51:12;;;;;;;22.77;15.93;;;;;;;22.70;78.03;99247.25;5132240;27;20215;-69
2022/08/16 02:53:46;;;;;;;27.10;17.02;;;;;;;22.72;77.64;99250.53;5133302;27;20064;-72
2022/08/16 02:56:15;;;;;;;26.67;17.77;;;;;;;22.73;77.52;99256.75;5130148;27;20023;-72
2022/08/16 02:58:42;;;;;;;22.52;16.80;;;;;;;22.73;77.49;99257.56;5135229;27;20048;-69
2022/08/16 03:01:09;;;;;;;22.70;17.23;;;;;;;22.81;76.96;99256.31;5114396;27;20125;-72
2022/08/16 03:03:37;;;;;;;24.88;16.83;;;;;;;22.61;77.55;99241.50;5132689;27;20034;-72
2022/08/16 03:06:03;;;;;;;23.77;16.88;;;;;;;22.61;77.16;99244.19;5131752;27;20254;-70
2022/08/16 03:08:28;;;;;;;22.75;16.52;;;;;;;22.70;76.66;99257.25;5131999;27;20031;-72
2022/08/16 03:10:53;;;;;;;24.85;16.08;;;;;;;22.46;77.06;99238.63;5110817;27;20220;-68
2022/08/16 03:13:19;;;;;;;22.92;15.95;;;;;;;22.65;77.12;99263.41;5134739;27;20026;-73
2022/08/16 03:15:46;;;;;;;23.83;16.00;;;;;;;22.57;77.88;99253.06;5132893;27;20031;-72
2022/08/16 03:18:12;;;;;;;21.58;15.35;;;;;;;22.62;77.24;99251.22;5132598;27;20080;-72
2022/08/16 03:20:38;;;;;;;23.58;16.40;;;;;;;22.56;77.15;99265.72;5134295;27;20063;-72
2022/08/16 03:23:04;;;;;;;24.90;16.95;;;;;;;22.52;77.15;99261.09;5131877;27;20023;-72
2022/08/16 03:25:31;;;;;;;23.10;16.05;;;;;;;22.52;77.36;99263.78;5132545;27;20030;-73
2022/08/16 03:27:56;;;;;;;23.25;15.63;;;;;;;22.65;76.77;99276.88;5132241;27;20031;-72
2022/08/16 03:30:26;;;;;;;21.80;15.93;;;;;;;22.63;77.00;99279.84;5115991;27;20027;-72
2022/08/16 03:32:53;;;;;;;26.60;16.38;;;;;;;22.52;77.12;99278.09;5133810;27;20027;-73
2022/08/16 03:35:21;;;;;;;22.63;16.38;;;;;;;22.59;76.89;99281.41;5133406;27;20055;-69
2022/08/16 03:37:47;;;;;;;23.27;16.08;;;;;;;22.48;77.74;99281.53;5131499;27;20031;-69
2022/08/16 03:40:15;;;;;;;24.35;17.10;;;;;;;22.49;77.89;99285.88;5131235;27;20366;-70
2022/08/16 03:42:40;;;;;;;27.67;16.27;;;;;;;22.41;78.58;99284.41;5131818;27;20023;-68
2022/08/16 03:45:07;;;;;;;28.45;17.52;;;;;;;22.37;78.82;99286.00;5131082;27;20046;-72
2022/08/16 03:47:33;;;;;;;28.45;16.50;;;;;;;22.46;78.45;99286.38;5131176;27;20023;-71
2022/08/16 03:49:59;;;;;;;27.17;17.48;;;;;;;22.44;78.55;99293.91;5134169;27;20036;-72
2022/08/16 03:52:25;;;;;;;29.58;17.45;;;;;;;22.46;78.60;99295.28;5132768;27;20045;-73
2022/08/16 03:54:52;;;;;;;22.80;17.45;;;;;;;22.48;78.75;99295.84;5131482;27;20043;-69
2022/08/16 03:57:17;;;;;;;24.58;17.40;;;;;;;22.50;78.70;99299.09;5133923;27;20042;-68
2022/08/16 03:59:43;;;;;;;28.00;17.63;;;;;;;22.52;78.32;99294.28;5132241;27;20043;-72
2022/08/16 04:02:10;;;;;;;26.80;16.98;;;;;;;22.46;78.95;99289.06;5114324;27;20096;-69
2022/08/16 04:04:36;;;;;;;21.48;16.10;;;;;;;22.42;79.26;99285.25;5116168;27;20106;-69
2022/08/16 04:07:03;;;;;;;22.00;16.48;;;;;;;22.44;79.58;99285.81;5130514;27;20032;-72
2022/08/16 04:09:30;;;;;;;23.92;16.23;;;;;;;22.39;79.52;99275.75;5119170;27;20371;-72
2022/08/16 04:11:56;;;;;;;26.17;16.40;;;;;;;22.42;79.22;99279.84;5132268;27;20156;-73
2022/08/16 04:14:21;;;;;;;28.80;16.63;;;;;;;22.16;79.26;99255.25;5133742;27;20312;-69
2022/08/16 04:16:47;;;;;;;26.90;16.95;;;;;;;22.42;80.00;99283.34;5132314;27;20026;-70
2022/08/16 04:19:12;;;;;;;27.23;17.83;;;;;;;22.47;79.88;99286.13;5135635;27;20080;-72
2022/08/16 04:21:38;;;;;;;21.52;16.45;;;;;;;22.54;80.01;99280.53;5134198;27;20344;-69
2022/08/16 04:24:04;;;;;;;37.35;22.33;;;;;;;22.41;77.96;99268.25;5136649;27;20035;-73
2022/08/16 04:26:30;;;;;;;46.38;24.63;;;;;;;22.49;78.35;99292.09;5136593;27;20030;-72
2022/08/16 04:28:56;;;;;;;37.63;22.02;;;;;;;22.67;77.64;99301.75;5135888;27;20037;-69
2022/08/16 04:31:22;;;;;;;38.03;23.33;;;;;;;22.80;76.74;99306.78;5133776;27;20329;-69
2022/08/16 04:33:48;;;;;;;38.33;24.17;;;;;;;22.90;76.85;99298.84;5134748;27;20027;-72
2022/08/16 04:36:14;;;;;;;56.63;35.10;;;;;;;23.00;76.14;99294.63;5135651;27;20340;-73
2022/08/16 04:38:39;;;;;;;39.72;26.63;;;;;;;22.96;75.36;99286.22;5134995;27;20224;-73
2022/08/16 04:41:05;;;;;;;28.95;20.27;;;;;;;23.07;75.13;99293.34;5135053;27;20309;-72
2022/08/16 04:43:32;;;;;;;20.15;14.80;;;;;;;23.03;73.85;99296.81;5135232;27;20030;-73
2022/08/16 04:45:58;;;;;;;23.85;16.50;;;;;;;22.93;74.82;99302.91;5137378;27;20043;-69
2022/08/16 04:48:24;;;;;;;27.30;16.83;;;;;;;23.05;74.87;99317.09;5134682;27;20143;-72
2022/08/16 04:50:49;;;;;;;25.35;16.05;;;;;;;22.85;75.84;99317.66;5135610;27;20253;-73
2022/08/16 04:53:15;;;;;;;26.50;18.00;;;;;;;23.01;75.41;99323.25;5136089;27;20032;-73
2022/08/16 04:55:41;;;;;;;27.85;17.13;;;;;;;23.22;74.61;99317.00;5134839;27;20077;-73
2022/08/16 04:58:07;;;;;;;24.23;15.95;;;;;;;23.26;74.98;99315.41;5134858;27;20038;-69
2022/08/16 05:00:33;;;;;;;29.10;15.60;;;;;;;23.44;73.85;99315.03;5136656;27;20035;-69
2022/08/16 05:03:10;;;;;;;22.10;15.98;;;;;;;23.65;73.73;99304.44;5134643;27;20031;-72
2022/08/16 05:05:37;;;;;;;22.15;15.95;;;;;;;23.75;73.00;99308.03;5133333;27;20043;-69
2022/08/16 05:08:03;;;;;;;25.08;15.88;;;;;;;23.87;72.62;99297.03;5135501;27;20031;-73
2022/08/16 05:10:29;;;;;;;19.73;15.98;;;;;;;24.03;71.72;99296.09;5135850;27;20058;-69
2022/08/16 05:12:54;;;;;;;26.77;17.33;;;;;;;24.12;72.24;99293.72;5134399;27;20063;-73
2022/08/16 05:15:20;;;;;;;23.42;15.85;;;;;;;24.09;72.77;99296.94;5135435;27;20113;-69
2022/08/16 05:17:46;;;;;;;24.15;16.15;;;;;;;24.45;70.63;99279.84;5134571;27;20056;-73
2022/08/16 05:20:11;;;;;;;23.63;15.18;;;;;;;24.66;70.08;99301.59;5135527;27;20055;-69
2022/08/16 05:22:38;;;;;;;20.33;15.15;;;;;;;24.91;69.83;99303.59;5136921;27;20220;-69
2022/08/16 05:25:06;;;;;;;21.42;15.38;;;;;;;25.11;68.72;99301.81;5115660;27;20030;-69
2022/08/16 05:27:31;;;;;;;21.73;15.38;;;;;;;25.31;67.51;99298.31;5132101;27;20298;-73
2022/08/16 05:29:57;;;;;;;23.83;15.90;;;;;;;25.34;66.41;99296.97;5134928;27;20057;-70
2022/08/16 05:32:22;;;;;;;22.13;15.63;;;;;;;25.60;66.66;99292.38;5134624;27;20194;-73
2022/08/16 05:34:48;;;;;;;21.33;16.73;;;;;;;25.93;64.76;99294.53;5134955;27;20039;-73
2022/08/16 05:37:13;;;;;;;24.48;16.98;;;;;;;26.04;63.87;99292.66;5134353;27;20065;-68
2022/08/16 05:39:39;;;;;;;22.90;16.10;;;;;;;26.23;62.77;99295.59;5133766;27;20027;-73
2022/08/16 05:42:05;;;;;;;19.02;14.98;;;;;;;26.54;62.33;99297.16;5133532;27;20359;-74
2022/08/16 05:44:30;;;;;;;21.30;15.98;;;;;;;26.68;61.70;99290.03;5134247;27;20047;-73
2022/08/16 05:46:58;;;;;;;24.45;15.48;;;;;;;26.87;60.58;99292.94;5135137;27;20119;-69
2022/08/16 05:49:26;;;;;;;18.90;15.50;;;;;;;26.94;59.73;99273.59;5137061;27;20034;-73
2022/08/16 05:51:54;;;;;;;23.88;15.40;;;;;;;27.06;59.68;99286.91;5130847;27;20033;-69
2022/08/16 05:54:20;;;;;;;21.88;15.40;;;;;;;27.17;59.21;99296.63;5135786;27;20094;-73
2022/08/16 05:56:45;;;;;;;28.33;15.88;;;;;;;27.38;58.58;99300.81;5134512;27;20043;-69
2022/08/16 05:59:13;;;;;;;21.83;15.13;;;;;;;27.52;58.63;99306.44;5134276;27;20080;-72
2022/08/16 06:01:39;;;;;;;37.97;24.35;;;;;;;27.64;57.87;99301.47;5133404;27;20072;-73
2022/08/16 06:04:08;;;;;;;20.15;15.27;;;;;;;27.50;57.90;99301.28;5133115;27;20015;-69
2022/08/16 06:06:34;;;;;;;23.73;17.15;;;;;;;27.52;57.01;99293.66;5132175;27;20049;-72
2022/08/16 06:08:59;;;;;;;21.17;15.57;;;;;;;27.63;56.64;99291.69;5134442;27;20042;-69
2022/08/16 06:11:25;;;;;;;16.67;13.65;;;;;;;27.93;54.21;99287.88;5116770;27;20270;-69
2022/08/16 06:13:50;;;;;;;23.52;13.23;;;;;;;27.90;53.22;99278.38;5134209;27;20019;-73
2022/08/16 06:16:15;;;;;;;18.05;13.02;;;;;;;28.12;52.78;99279.84;5136308;27;20035;-69
2022/08/16 06:18:43;;;;;;;18.80;12.70;;;;;;;28.29;52.60;99272.06;5132231;27;20433;-73
2022/08/16 06:21:11;;;;;;;19.25;12.27;;;;;;;28.35;51.34;99256.47;5133841;27;20043;-73
2022/08/16 06:23:36;;;;;;;16.20;12.45;;;;;;;28.43;50.08;99255.81;5134661;27;20055;-69
2022/08/16 06:26:02;;;;;;;15.80;11.65;;;;;;;28.44;50.22;99249.28;5135144;27;20194;-73
2022/08/16 06:28:28;;;;;;;16.60;12.32;;;;;;;28.75;50.14;99260.59;5133415;27;20087;-69
2022/08/16 06:30:53;;;;;;;17.42;11.63;;;;;;;28.92;49.94;99259.00;5132576;27;20020;-74
2022/08/16 06:33:19;;;;;;;14.85;11.90;;;;;;;28.85;48.47;99258.56;5116131;27;20037;-73
2022/08/16 06:35:45;;;;;;;18.50;12.48;;;;;;;28.90;48.24;99244.88;5145302;27;20043;-73
2022/08/16 06:38:11;;;;;;;15.27;11.05;;;;;;;28.95;47.65;99251.34;5132043;27;20031;-69
2022/08/16 06:40:37;;;;;;;16.15;11.80;;;;;;;29.01;47.44;99250.16;5135429;27;20224;-69
2022/08/16 06:43:02;;;;;;;13.35;10.70;;;;;;;29.24;47.10;99250.09;5131250;27;20037;-73
2022/08/16 06:45:28;;;;;;;16.40;11.95;;;;;;;29.46;48.12;99235.06;5115149;27;20146;-73
2022/08/16 06:47:53;;;;;;;13.73;10.93;;;;;;;29.52;46.16;99240.13;5133608;27;20061;-70
2022/08/16 06:50:19;;;;;;;15.32;11.05;;;;;;;29.55;45.55;99225.09;5130431;27;20403;-72
2022/08/16 06:52:45;;;;;;;13.02;10.75;;;;;;;29.77;45.52;99230.69;5132658;27;20209;-69
2022/08/16 06:55:12;;;;;;;16.73;11.15;;;;;;;29.88;45.27;99234.84;5137109;27;20320;-74
2022/08/16 06:57:39;;;;;;;14.30;10.98;;;;;;;30.03;45.60;99236.50;5120683;27;20368;-73
2022/08/16 07:00:14;;;;;;;13.35;10.20;;;;;;;30.24;45.48;99230.69;5121330;27;20035;-73
2022/08/16 07:02:41;;;;;;;13.88;10.23;;;;;;;30.52;44.18;99239.66;5145312;27;20122;-69
2022/08/16 07:05:07;;;;;;;14.02;10.32;;;;;;;30.63;42.95;99222.78;5138682;27;20079;-73
2022/08/16 07:07:33;;;;;;;22.05;10.38;;;;;;;30.74;43.07;99224.16;5138288;27;20355;-73
2022/08/16 07:09:59;;;;;;;19.38;10.40;;;;;;;30.93;43.08;99223.19;5137574;27;20027;-69
2022/08/16 07:12:24;;;;;;;14.43;10.68;;;;;;;30.80;42.48;99219.38;5139837;27;20324;-70
2022/08/16 07:14:50;;;;;;;13.88;10.32;;;;;;;30.76;42.51;99216.47;5140409;27;20031;-74
2022/08/16 07:17:17;;;;;;;13.45;10.68;;;;;;;30.96;42.63;99219.84;5139599;27;20049;-69
2022/08/16 07:19:43;;;;;;;16.70;9.90;;;;;;;31.00;42.30;99221.66;5139479;27;20049;-69
2022/08/16 07:22:09;;;;;;;13.32;9.50;;;;;;;31.10;41.76;99223.34;5137572;27;20050;-73
2022/08/16 07:24:35;;;;;;;15.77;9.57;;;;;;;31.17;41.26;99221.00;5138754;27;20034;-71
2022/08/16 07:27:00;;;;;;;15.82;9.68;;;;;;;31.25;40.76;99224.97;5138938;27;20043;-69
2022/08/16 07:29:27;;;;;;;13.75;9.00;;;;;;;31.21;40.72;99224.78;5138973;27;20146;-73
2022/08/16 07:31:53;;;;;;;12.40;9.63;;;;;;;31.26;41.50;99204.69;5139573;27;20249;-69
2022/08/16 07:34:19;;;;;;;11.75;10.13;;;;;;;31.54;39.87;99229.97;5139616;27;20038;-74
2022/08/16 07:36:44;;;;;;;12.18;9.95;;;;;;;31.46;40.61;99222.53;5140037;27;20027;-69
2022/08/16 07:39:11;;;;;;;13.90;9.68;;;;;;;31.30;39.86;99222.09;5120889;27;20050;-73
2022/08/16 07:41:37;;;;;;;16.90;8.65;;;;;;;31.52;38.84;99229.47;5139028;27;20035;-74
2022/08/16 07:44:03;;;;;;;13.52;8.90;;;;;;;31.63;39.64;99248.06;5119970;27;20157;-69
2022/08/16 07:46:28;;;;;;;12.82;9.32;;;;;;;31.75;38.78;99250.25;5137994;27;20030;-73
2022/08/16 07:48:54;;;;;;;14.32;9.88;;;;;;;31.99;38.52;99241.69;5139116;27;20027;-73
2022/08/16 07:51:19;;;;;;;13.95;8.90;;;;;;;32.19;38.34;99246.59;5138172;27;20026;-69
2022/08/16 07:53:50;;;;;;;13.38;8.73;;;;;;;32.18;37.01;99242.22;5134866;27;20023;-69
2022/08/16 07:56:18;;;;;;;10.48;8.98;;;;;;;31.94;38.45;99239.88;5136784;27;20027;-69
2022/08/16 07:58:45;;;;;;;15.32;8.68;;;;;;;32.00;36.90;99235.88;5151064;27;20038;-69
2022/08/16 08:01:12;;;;;;;17.60;8.80;;;;;;;31.94;36.67;99234.41;5136208;27;20039;-69
2022/08/16 08:03:39;;;;;;;9.10;7.90;;;;;;;31.97;36.46;99231.03;5135599;27;20226;-69
2022/08/16 08:06:04;;;;;;;13.73;8.00;;;;;;;32.41;36.08;99236.72;5137013;27;20225;-73
2022/08/16 08:08:30;;;;;;;9.60;8.68;;;;;;;32.34;35.67;99226.22;5135771;27;20030;-73
2022/08/16 08:10:55;;;;;;;9.32;7.63;;;;;;;32.42;35.72;99233.66;5136612;27;20035;-70
2022/08/16 08:13:22;;;;;;;10.57;8.23;;;;;;;32.65;35.85;99218.72;5136974;27;20094;-69
2022/08/16 08:15:48;;;;;;;13.07;6.93;;;;;;;32.92;34.97;99223.13;5134767;27;20039;-69
2022/08/16 08:18:14;;;;;;;10.43;7.72;;;;;;;32.80;34.62;99220.22;5135574;27;20027;-74
2022/08/16 08:20:43;;;;;;;7.88;6.82;;;;;;;32.79;34.62;99218.59;5137932;27;20051;-73
2022/08/16 08:23:10;;;;;;;7.55;6.60;;;;;;;32.68;33.60;99215.34;5135536;27;20045;-73
2022/08/16 08:25:36;;;;;;;10.38;6.55;;;;;;;32.85;33.02;99214.56;5138034;27;20061;-73
2022/08/16 08:28:02;;;;;;;12.93;7.35;;;;;;;32.87;33.82;99217.00;5120312;27;20062;-73
2022/08/16 08:30:28;;;;;;;12.65;7.28;;;;;;;32.89;33.64;99212.78;5137537;27;20413;-69
2022/08/16 08:32:54;;;;;;;12.63;6.68;;;;;;;33.14;33.33;99213.09;5137564;27;20309;-72
2022/08/16 08:35:19;;;;;;;10.95;7.25;;;;;;;33.03;33.12;99211.81;5138885;27;20045;-70
2022/08/16 08:37:45;;;;;;;9.65;6.88;;;;;;;33.20;32.68;99209.88;5135419;27;20245;-69
2022/08/16 08:40:11;;;;;;;9.82;6.97;;;;;;;33.34;32.98;99211.69;5135720;27;20050;-73
2022/08/16 08:42:38;;;;;;;8.95;6.18;;;;;;;33.36;32.52;99198.44;5137758;27;20031;-67
2022/08/16 08:45:04;;;;;;;7.50;5.75;;;;;;;33.34;32.44;99197.97;5137211;27;20039;-67
2022/08/16 08:47:30;;;;;;;7.90;5.38;;;;;;;33.54;32.12;99200.03;5134611;27;20053;-70
2022/08/16 08:49:57;;;;;;;9.25;6.82;;;;;;;33.40;32.04;99202.16;5138121;27;20076;-72
2022/08/16 08:52:23;;;;;;;7.65;5.90;;;;;;;33.28;33.35;99197.28;5133689;27;20050;-73
2022/08/16 08:54:49;;;;;;;13.82;6.93;;;;;;;33.42;33.37;99197.16;5135114;27;20341;-73
2022/08/16 08:57:15;;;;;;;7.90;6.15;;;;;;;33.46;32.18;99192.63;5138451;27;20061;-72
2022/08/16 08:59:41;;;;;;;8.25;6.40;;;;;;;33.28;33.01;99184.34;5135241;27;20306;-69
2022/08/16 09:02:07;;;;;;;10.43;6.13;;;;;;;33.47;33.06;99189.53;5135618;27;20039;-73
2022/08/16 09:04:33;;;;;;;9.73;6.03;;;;;;;33.27;33.11;99201.16;5134963;27;20094;-69
2022/08/16 09:06:59;;;;;;;8.68;6.38;;;;;;;33.39;33.89;99200.53;5117921;27;20023;-69
2022/08/16 09:09:24;;;;;;;11.55;5.90;;;;;;;33.35;32.16;99185.88;5137039;27;20057;-69
2022/08/16 09:11:51;;;;;;;7.03;5.70;;;;;;;33.42;32.14;99197.97;5133474;27;20031;-73
2022/08/16 09:14:16;;;;;;;11.13;6.10;;;;;;;33.51;32.52;99198.75;5133939;27;20217;-73
2022/08/16 09:16:42;;;;;;;8.30;5.95;;;;;;;33.47;32.63;99205.22;5139106;27;20019;-69
2022/08/16 09:19:08;;;;;;;11.40;6.57;;;;;;;33.28;33.15;99206.31;5137348;27;20200;-69
2022/08/16 09:21:35;;;;;;;11.55;6.40;;;;;;;33.37;33.58;99198.13;5135958;27;20064;-69
2022/08/16 09:24:01;;;;;;;12.90;6.28;;;;;;;33.15;34.27;99195.53;5137325;27;20030;-69
2022/08/16 09:26:26;;;;;;;11.60;6.47;;;;;;;33.35;34.51;99183.13;5135963;27;20039;-69
2022/08/16 09:28:52;;;;;;;8.65;6.03;;;;;;;33.41;34.31;99196.34;5136486;27;20332;-72
2022/08/16 09:31:18;;;;;;;9.02;6.07;;;;;;;33.50;33.09;99193.56;5133774;27;20232;-73
2022/08/16 09:33:44;;;;;;;9.45;6.40;;;;;;;33.57;33.13;99183.69;5136695;27;20019;-69
2022/08/16 09:36:11;;;;;;;8.88;6.03;;;;;;;33.55;32.79;99194.22;5135922;27;20054;-73
2022/08/16 09:38:38;;;;;;;8.43;6.45;;;;;;;33.45;32.63;99193.75;5134786;27;20019;-69
2022/08/16 09:41:06;;;;;;;9.45;6.45;;;;;;;33.16;32.28;99183.41;5135643;27;20325;-69
2022/08/16 09:43:33;;;;;;;9.82;5.70;;;;;;;33.30;32.36;99189.59;5117578;27;20067;-73
2022/08/16 09:46:00;;;;;;;9.32;5.43;;;;;;;33.28;32.70;99183.56;5134667;27;20039;-73
2022/08/16 09:48:27;;;;;;;6.32;5.25;;;;;;;33.33;33.50;99180.69;5134725;27;20041;-73
2022/08/16 09:50:53;;;;;;;6.53;4.90;;;;;;;33.34;32.00;99182.31;5135114;27;20091;-69
2022/08/16 09:53:21;;;;;;;7.65;5.35;;;;;;;33.38;31.90;99185.22;5132919;27;20023;-69
2022/08/16 09:55:49;;;;;;;11.52;6.63;;;;;;;33.17;32.00;99155.66;5135495;27;20106;-69
2022/08/16 09:58:16;;;;;;;10.90;5.43;;;;;;;33.21;32.10;99173.06;5137549;27;20430;-72
2022/08/16 10:00:43;;;;;;;7.68;5.15;;;;;;;33.31;32.94;99172.78;5134909;27;20098;-69
2022/08/16 10:03:08;;;;;;;8.05;5.70;;;;;;;33.42;32.67;99172.44;5133227;27;20072;-73
2022/08/16 10:05:36;;;;;;;8.88;6.03;;;;;;;33.51;32.31;99162.25;5133519;27;20038;-69
2022/08/16 10:08:04;;;;;;;8.35;5.90;;;;;;;33.26;32.56;99161.94;5134949;27;20403;-69
2022/08/16 10:10:29;;;;;;;5.78;5.18;;;;;;;33.34;32.28;99163.09;5133656;27;20059;-73
2022/08/16 10:13:14;;;;;;;9.48;5.65;;;;;;;33.42;32.19;99154.03;5133683;27;20331;-69
2022/08/16 10:15:42;;;;;;;6.45;5.03;;;;;;;33.46;32.80;99159.69;5133961;27;20057;-69
2022/08/16 10:18:11;;;;;;;8.65;5.07;;;;;;;33.46;31.88;99162.44;5137462;27;20042;-72
2022/08/16 10:20:41;;;;;;;6.05;4.72;;;;;;;33.39;32.10;99154.69;5134620;27;20050;-72
2022/08/16 10:23:09;;;;;;;8.15;5.32;;;;;;;33.43;32.38;99163.88;5134701;27;20023;-73
2022/08/16 10:25:38;;;;;;;9.38;5.25;;;;;;;33.21;32.55;99166.78;5114949;27;20198;-68
2022/08/16 10:28:04;;;;;;;6.18;5.18;;;;;;;33.35;32.06;99161.16;5134737;27;20050;-69
2022/08/16 10:30:30;;;;;;;6.38;4.80;;;;;;;33.26;32.04;99156.44;5135415;27;20035;-73
2022/08/16 10:32:55;;;;;;;5.75;4.97;;;;;;;33.29;31.61;99149.50;5134374;27;20023;-73
2022/08/16 10:35:21;;;;;;;8.63;5.30;;;;;;;33.23;32.60;99146.13;5136109;27;20088;-68
2022/08/16 10:37:46;;;;;;;7.35;5.05;;;;;;;33.41;31.03;99149.69;5134683;27;20042;-68
2022/08/16 10:40:12;;;;;;;7.90;5.63;;;;;;;33.35;30.55;99148.25;5134112;27;20034;-69
2022/08/16 10:42:38;;;;;;;10.50;5.82;;;;;;;33.37;31.95;99146.00;5135205;27;20039;-72
2022/08/16 10:45:03;;;;;;;6.30;5.53;;;;;;;33.55;31.90;99144.00;5134891;27;20444;-69
2022/08/16 10:47:29;;;;;;;7.85;5.25;;;;;;;33.31;32.26;99139.88;5132464;27;20364;-72
2022/08/16 10:49:54;;;;;;;8.50;4.95;;;;;;;33.44;31.26;99137.25;5134340;27;20092;-72
2022/08/16 10:52:21;;;;;;;8.40;5.03;;;;;;;33.45;31.82;99136.13;5133782;27;20099;-73
2022/08/16 10:54:47;;;;;;;6.68;5.03;;;;;;;33.63;30.75;99140.41;5135053;27;20027;-73
2022/08/16 10:57:13;;;;;;;6.82;6.00;;;;;;;33.58;30.96;99141.41;5134831;27;20202;-72
2022/08/16 10:59:40;;;;;;;7.65;4.70;;;;;;;33.69;31.00;99135.53;5133889;27;20204;-69
2022/08/16 11:02:06;;;;;;;6.50;4.53;;;;;;;33.71;30.36;99138.75;5134343;27;20058;-72
2022/08/16 11:04:31;;;;;;;8.93;4.82;;;;;;;33.66;30.00;99127.97;5135741;27;20275;-69
2022/08/16 11:06:56;;;;;;;9.52;4.75;;;;;;;33.79;30.46;99135.16;5132083;27;20041;-72
2022/08/16 11:09:22;;;;;;;5.93;4.47;;;;;;;33.73;30.36;99131.81;5133551;27;20037;-69
2022/08/16 11:11:47;;;;;;;5.03;4.55;;;;;;;33.71;29.64;99136.81;5134325;27;20049;-72
2022/08/16 11:14:13;;;;;;;7.30;4.60;;;;;;;33.64;30.95;99133.78;5131078;27;20043;-73
2022/08/16 11:16:39;;;;;;;4.53;4.05;;;;;;;33.81;28.88;99131.00;5132886;27;20226;-73
2022/08/16 11:19:05;;;;;;;7.13;4.43;;;;;;;33.83;30.30;99125.97;5132968;27;20031;-69